createdAt,value
2018-09-23T00:00:26.964Z,0.00
2018-09-23T00:01:26.886Z,0.00
2018-09-23T00:02:26.812Z,0.00
2018-09-23T00:03:26.736Z,0.00
2018-09-23T00:04:26.659Z,0.00
2018-09-23T00:05:26.583Z,0.00
2018-09-23T00:06:26.508Z,0.00
2018-09-23T00:07:26.428Z,0.00
2018-09-23T00:08:26.355Z,0.00
2018-09-23T00:09:26.280Z,0.00
2018-09-23T00:10:26.203Z,0.00
2018-09-23T00:11:26.127Z,0.00
2018-09-23T00:12:26.049Z,0.00
2018-09-23T00:13:25.976Z,0.00
2018-09-23T00:14:25.907Z,0.00
2018-09-23T00:15:25.834Z,0.00
2018-09-23T00:16:25.749Z,0.00
2018-09-23T00:17:25.671Z,0.00
2018-09-23T00:18:25.601Z,0.00
2018-09-23T00:19:25.520Z,0.00
2018-09-23T00:20:25.444Z,0.00
2018-09-23T00:21:25.369Z,0.00
2018-09-23T00:22:25.294Z,0.00
2018-09-23T00:23:25.217Z,0.00
2018-09-23T00:24:25.143Z,0.00
2018-09-23T00:25:25.062Z,0.00
2018-09-23T00:26:24.986Z,0.00
2018-09-23T00:27:24.910Z,0.00
2018-09-23T00:28:24.836Z,0.00
2018-09-23T00:29:24.761Z,0.00
2018-09-23T00:30:24.687Z,0.00
2018-09-23T00:31:24.610Z,0.00
2018-09-23T00:32:24.574Z,0.00
2018-09-23T00:33:24.454Z,0.00
2018-09-23T00:34:24.384Z,0.00
2018-09-23T00:35:24.307Z,0.00
2018-09-23T00:36:24.234Z,0.00
2018-09-23T00:37:24.154Z,0.00
2018-09-23T00:38:24.080Z,0.00
2018-09-23T00:39:24.001Z,0.00
2018-09-23T00:40:23.929Z,0.00
2018-09-23T00:41:23.851Z,0.00
2018-09-23T00:42:23.774Z,0.00
2018-09-23T00:43:23.699Z,0.00
2018-09-23T00:44:23.624Z,0.00
2018-09-23T00:45:23.548Z,0.00
2018-09-23T00:46:23.471Z,0.00
2018-09-23T00:47:23.393Z,0.00
2018-09-23T00:48:23.322Z,0.00
2018-09-23T00:49:23.243Z,0.00
2018-09-23T00:50:23.170Z,0.00
2018-09-23T00:51:23.094Z,0.00
2018-09-23T00:52:23.065Z,0.00
2018-09-23T00:53:22.946Z,0.00
2018-09-23T00:54:22.867Z,0.00
2018-09-23T00:55:22.788Z,0.00
2018-09-23T00:56:22.712Z,0.00
2018-09-23T00:57:22.644Z,0.00
2018-09-23T00:58:22.558Z,0.00
2018-09-23T00:59:22.490Z,0.00
2018-09-23T01:00:22.407Z,0.00
2018-09-23T01:01:22.333Z,0.00
2018-09-23T01:02:22.257Z,0.00
2018-09-23T01:03:22.181Z,0.00
2018-09-23T01:04:22.104Z,0.00
2018-09-23T01:05:22.030Z,0.00
2018-09-23T01:06:21.954Z,0.00
2018-09-23T01:07:21.878Z,0.00
2018-09-23T01:08:21.800Z,0.00
2018-09-23T01:09:21.729Z,0.00
2018-09-23T01:10:21.649Z,0.00
2018-09-23T01:11:21.574Z,0.00
2018-09-23T01:12:21.496Z,0.00
2018-09-23T01:13:21.420Z,0.00
2018-09-23T01:14:21.346Z,0.00
2018-09-23T01:15:21.269Z,0.00
2018-09-23T01:16:21.218Z,0.00
2018-09-23T01:17:21.121Z,0.00
2018-09-23T01:18:21.045Z,0.00
2018-09-23T01:19:20.970Z,0.00
2018-09-23T01:20:20.891Z,0.00
2018-09-23T01:21:20.815Z,0.00
2018-09-23T01:22:20.739Z,0.00
2018-09-23T01:23:20.659Z,0.00
2018-09-23T01:24:20.589Z,0.00
2018-09-23T01:25:20.512Z,0.00
2018-09-23T01:26:20.438Z,0.00
2018-09-23T01:27:20.361Z,0.00
2018-09-23T01:28:20.282Z,0.00
2018-09-23T01:29:20.205Z,0.00
2018-09-23T01:30:20.132Z,0.00
2018-09-23T01:31:20.053Z,0.00
2018-09-23T01:32:19.979Z,0.00
2018-09-23T01:33:19.902Z,0.00
2018-09-23T01:34:19.825Z,0.00
2018-09-23T01:35:19.750Z,0.00
2018-09-23T01:36:19.675Z,0.00
2018-09-23T01:37:19.596Z,0.00
2018-09-23T01:38:19.521Z,0.00
2018-09-23T01:39:19.440Z,0.00
2018-09-23T01:40:19.367Z,0.00
2018-09-23T01:41:19.297Z,0.00
2018-09-23T01:42:19.216Z,0.00
2018-09-23T01:43:19.139Z,0.00
2018-09-23T01:44:19.064Z,0.00
2018-09-23T01:45:18.989Z,0.00
2018-09-23T01:46:18.920Z,0.00
2018-09-23T01:47:18.839Z,0.00
2018-09-23T01:48:18.761Z,0.00
2018-09-23T01:49:18.684Z,0.00
2018-09-23T01:50:18.609Z,0.00
2018-09-23T01:51:18.536Z,0.00
2018-09-23T01:52:18.455Z,0.00
2018-09-23T01:53:18.382Z,0.00
2018-09-23T01:54:18.305Z,0.00
2018-09-23T01:55:18.229Z,0.00
2018-09-23T01:56:18.150Z,0.00
2018-09-23T01:57:18.077Z,0.00
2018-09-23T01:58:18.006Z,0.00
2018-09-23T01:59:17.926Z,0.00
2018-09-23T02:00:17.848Z,0.00
2018-09-23T02:01:17.774Z,0.00
2018-09-23T02:02:17.697Z,0.00
2018-09-23T02:03:17.620Z,0.00
2018-09-23T02:04:17.548Z,0.00
2018-09-23T02:05:17.475Z,0.00
2018-09-23T02:06:17.390Z,0.00
2018-09-23T02:07:17.314Z,0.00
2018-09-23T02:08:17.240Z,0.00
2018-09-23T02:09:17.163Z,0.00
2018-09-23T02:10:17.088Z,0.00
2018-09-23T02:11:17.013Z,0.00
2018-09-23T02:12:16.940Z,0.00
2018-09-23T02:13:16.862Z,0.00
2018-09-23T02:14:16.790Z,0.00
2018-09-23T02:15:16.706Z,0.00
2018-09-23T02:16:16.631Z,0.00
2018-09-23T02:17:16.555Z,0.00
2018-09-23T02:18:16.480Z,0.00
2018-09-23T02:19:16.404Z,0.00
2018-09-23T02:20:16.327Z,0.00
2018-09-23T02:21:16.296Z,0.00
2018-09-23T02:22:16.174Z,0.00
2018-09-23T02:23:16.101Z,0.00
2018-09-23T02:24:16.024Z,0.00
2018-09-23T02:25:15.948Z,0.00
2018-09-23T02:26:15.869Z,0.00
2018-09-23T02:27:15.802Z,0.00
2018-09-23T02:28:15.723Z,0.00
2018-09-23T02:29:15.643Z,0.00
2018-09-23T02:30:15.570Z,0.00
2018-09-23T02:31:15.494Z,0.00
2018-09-23T02:32:15.418Z,0.00
2018-09-23T02:33:15.340Z,0.00
2018-09-23T02:34:15.264Z,0.00
2018-09-23T02:35:15.185Z,0.00
2018-09-23T02:36:15.112Z,0.00
2018-09-23T02:37:15.036Z,0.00
2018-09-23T02:38:14.960Z,0.00
2018-09-23T02:39:14.881Z,0.00
2018-09-23T02:40:14.807Z,0.00
2018-09-23T02:41:14.731Z,0.00
2018-09-23T02:42:14.657Z,0.00
2018-09-23T02:43:14.578Z,0.00
2018-09-23T02:44:14.504Z,0.00
2018-09-23T02:45:14.427Z,0.00
2018-09-23T02:46:14.352Z,0.00
2018-09-23T02:47:14.277Z,0.00
2018-09-23T02:48:14.198Z,0.00
2018-09-23T02:49:14.122Z,0.00
2018-09-23T02:50:14.050Z,0.00
2018-09-23T02:51:13.971Z,0.00
2018-09-23T02:52:13.893Z,0.00
2018-09-23T02:53:13.819Z,0.00
2018-09-23T02:54:13.741Z,0.00
2018-09-23T02:55:13.666Z,0.00
2018-09-23T02:56:13.589Z,0.00
2018-09-23T02:57:13.515Z,0.00
2018-09-23T02:58:13.442Z,0.00
2018-09-23T02:59:13.359Z,0.00
2018-09-23T03:00:13.286Z,0.00
2018-09-23T03:01:13.212Z,0.00
2018-09-23T03:02:13.145Z,0.00
2018-09-23T03:03:13.057Z,0.00
2018-09-23T03:04:12.981Z,0.00
2018-09-23T03:05:12.901Z,0.00
2018-09-23T03:06:12.832Z,0.00
2018-09-23T03:07:12.752Z,0.00
2018-09-23T03:08:12.678Z,0.00
2018-09-23T03:09:12.600Z,0.00
2018-09-23T03:10:12.527Z,0.00
2018-09-23T03:11:12.449Z,0.00
2018-09-23T03:12:12.373Z,0.00
2018-09-23T03:13:12.297Z,0.00
2018-09-23T03:14:12.223Z,0.00
2018-09-23T03:15:12.146Z,0.00
2018-09-23T03:16:12.067Z,0.00
2018-09-23T03:17:11.994Z,0.00
2018-09-23T03:18:11.918Z,0.00
2018-09-23T03:19:11.841Z,0.00
2018-09-23T03:20:11.764Z,0.00
2018-09-23T03:21:11.691Z,0.00
2018-09-23T03:22:11.614Z,0.00
2018-09-23T03:23:11.535Z,0.00
2018-09-23T03:24:11.458Z,0.00
2018-09-23T03:25:11.380Z,0.00
2018-09-23T03:26:11.307Z,0.00
2018-09-23T03:27:11.232Z,0.00
2018-09-23T03:28:11.156Z,0.00
2018-09-23T03:29:11.085Z,0.00
2018-09-23T03:30:11.002Z,0.00
2018-09-23T03:31:10.922Z,0.00
2018-09-23T03:32:10.851Z,0.00
2018-09-23T03:33:10.771Z,0.00
2018-09-23T03:34:10.697Z,0.00
2018-09-23T03:35:10.624Z,0.00
2018-09-23T03:36:10.548Z,0.00
2018-09-23T03:37:10.469Z,0.00
2018-09-23T03:38:10.392Z,0.00
2018-09-23T03:39:10.310Z,0.00
2018-09-23T03:40:10.241Z,0.00
2018-09-23T03:41:10.169Z,0.00
2018-09-23T03:42:10.090Z,0.00
2018-09-23T03:43:10.011Z,0.00
2018-09-23T03:44:09.938Z,0.00
2018-09-23T03:45:09.860Z,0.00
2018-09-23T03:46:09.782Z,0.00
2018-09-23T03:47:09.708Z,0.00
2018-09-23T03:48:09.631Z,0.00
2018-09-23T03:49:09.553Z,0.00
2018-09-23T03:50:09.479Z,0.00
2018-09-23T03:51:09.404Z,0.00
2018-09-23T03:52:09.326Z,0.00
2018-09-23T03:53:09.252Z,0.00
2018-09-23T03:54:09.176Z,0.00
2018-09-23T03:55:09.099Z,0.00
2018-09-23T03:56:09.021Z,0.00
2018-09-23T03:57:08.948Z,0.00
2018-09-23T03:58:08.884Z,0.00
2018-09-23T03:59:08.794Z,0.00
2018-09-23T04:00:08.719Z,0.00
2018-09-23T04:01:08.643Z,0.00
2018-09-23T04:02:08.567Z,0.00
2018-09-23T04:03:08.489Z,0.00
2018-09-23T04:04:08.413Z,0.00
2018-09-23T04:05:08.339Z,0.00
2018-09-23T04:06:08.263Z,0.00
2018-09-23T04:07:08.189Z,0.00
2018-09-23T04:08:08.109Z,0.00
2018-09-23T04:09:08.035Z,0.00
2018-09-23T04:10:07.959Z,0.00
2018-09-23T04:11:07.885Z,0.00
2018-09-23T04:12:07.823Z,0.00
2018-09-23T04:13:07.729Z,0.00
2018-09-23T04:14:07.654Z,0.00
2018-09-23T04:15:07.577Z,0.00
2018-09-23T04:16:07.502Z,0.00
2018-09-23T04:17:07.423Z,0.00
2018-09-23T04:18:07.350Z,0.00
2018-09-23T04:19:07.274Z,0.00
2018-09-23T04:20:07.199Z,0.00
2018-09-23T04:21:07.123Z,0.00
2018-09-23T04:22:07.042Z,0.00
2018-09-23T04:23:06.970Z,0.00
2018-09-23T04:24:06.897Z,0.00
2018-09-23T04:25:06.815Z,0.00
2018-09-23T04:26:06.740Z,0.00
2018-09-23T04:27:06.673Z,0.00
2018-09-23T04:28:06.585Z,0.00
2018-09-23T04:29:06.510Z,0.00
2018-09-23T04:30:06.435Z,0.00
2018-09-23T04:31:06.372Z,0.00
2018-09-23T04:32:06.317Z,0.00
2018-09-23T04:33:06.208Z,0.00
2018-09-23T04:34:06.131Z,0.00
2018-09-23T04:35:06.053Z,0.00
2018-09-23T04:36:05.979Z,0.00
2018-09-23T04:37:05.902Z,0.00
2018-09-23T04:38:05.828Z,0.00
2018-09-23T04:39:05.751Z,0.00
2018-09-23T04:40:05.680Z,0.00
2018-09-23T04:41:05.598Z,0.00
2018-09-23T04:42:05.522Z,0.00
2018-09-23T04:43:05.444Z,0.00
2018-09-23T04:44:05.370Z,0.00
2018-09-23T04:45:05.328Z,0.00
2018-09-23T04:46:05.219Z,0.00
2018-09-23T04:47:05.146Z,0.00
2018-09-23T04:48:05.072Z,0.00
2018-09-23T04:49:04.990Z,0.00
2018-09-23T04:50:04.920Z,0.00
2018-09-23T04:51:04.833Z,0.00
2018-09-23T04:52:04.761Z,0.00
2018-09-23T04:53:04.684Z,0.00
2018-09-23T04:54:04.608Z,0.00
2018-09-23T04:55:04.577Z,0.00
2018-09-23T04:56:04.504Z,4.00
2018-09-23T04:57:04.380Z,4.00
2018-09-23T04:58:04.306Z,0.00
2018-09-23T04:59:04.227Z,4.00
2018-09-23T05:00:04.151Z,4.00
2018-09-23T05:01:04.077Z,4.00
2018-09-23T05:02:03.999Z,4.00
2018-09-23T05:03:03.923Z,4.00
2018-09-23T05:04:03.846Z,8.00
2018-09-23T05:05:03.772Z,8.00
2018-09-23T05:06:03.697Z,8.00
2018-09-23T05:07:03.620Z,12.00
2018-09-23T05:08:03.544Z,16.00
2018-09-23T05:09:03.467Z,24.00
2018-09-23T05:10:03.447Z,24.00
2018-09-23T05:11:03.315Z,28.00
2018-09-23T05:12:03.243Z,32.00
2018-09-23T05:13:03.164Z,36.00
2018-09-23T05:14:03.104Z,40.00
2018-09-23T05:15:03.011Z,40.00
2018-09-23T05:16:02.938Z,40.00
2018-09-23T05:17:02.860Z,44.00
2018-09-23T05:18:02.788Z,40.00
2018-09-23T05:19:02.707Z,44.00
2018-09-23T05:20:02.629Z,48.00
2018-09-23T05:21:02.560Z,52.00
2018-09-23T05:22:02.482Z,56.00
2018-09-23T05:23:02.402Z,60.00
2018-09-23T05:24:02.328Z,64.00
2018-09-23T05:25:02.253Z,72.00
2018-09-23T05:26:02.175Z,76.00
2018-09-23T05:27:02.099Z,72.00
2018-09-23T05:28:02.023Z,72.00
2018-09-23T05:29:01.949Z,80.00
2018-09-23T05:30:01.870Z,88.00
2018-09-23T05:31:01.859Z,100.00
2018-09-23T05:32:01.720Z,116.00
2018-09-23T05:33:01.644Z,124.00
2018-09-23T05:34:01.569Z,132.00
2018-09-23T05:35:01.493Z,144.00
2018-09-23T05:36:01.416Z,148.00
2018-09-23T05:37:01.342Z,152.00
2018-09-23T05:38:01.264Z,156.00
2018-09-23T05:39:01.186Z,168.00
2018-09-23T05:40:01.112Z,188.00
2018-09-23T05:41:01.035Z,200.00
2018-09-23T05:42:00.960Z,204.00
2018-09-23T05:43:00.885Z,196.00
2018-09-23T05:44:00.837Z,168.00
2018-09-23T05:45:00.731Z,160.00
2018-09-23T05:46:00.659Z,168.00
2018-09-23T05:47:00.581Z,172.00
2018-09-23T05:48:00.506Z,192.00
2018-09-23T05:49:00.433Z,228.00
2018-09-23T05:50:00.352Z,284.00
2018-09-23T05:51:00.277Z,324.00
2018-09-23T05:52:00.204Z,332.00
2018-09-23T05:53:00.129Z,328.00
2018-09-23T05:54:00.053Z,340.00
2018-09-23T05:54:59.983Z,364.00
2018-09-23T05:55:59.898Z,420.00
2018-09-23T05:56:59.828Z,496.00
2018-09-23T05:57:59.747Z,548.00
2018-09-23T05:58:59.671Z,508.00
2018-09-23T05:59:59.599Z,436.00
2018-09-23T06:00:59.518Z,420.00
2018-09-23T06:01:59.444Z,452.00
2018-09-23T06:02:59.424Z,536.00
2018-09-23T06:03:59.291Z,616.00
2018-09-23T06:04:59.221Z,580.00
2018-09-23T06:05:59.141Z,588.00
2018-09-23T06:06:59.063Z,652.00
2018-09-23T06:07:58.986Z,620.00
2018-09-23T06:08:58.939Z,504.00
2018-09-23T06:09:58.842Z,464.00
2018-09-23T06:10:58.763Z,484.00
2018-09-23T06:11:58.683Z,504.00
2018-09-23T06:12:58.608Z,532.00
2018-09-23T06:13:58.533Z,512.00
2018-09-23T06:14:58.459Z,468.00
2018-09-23T06:15:58.380Z,460.00
2018-09-23T06:16:58.303Z,456.00
2018-09-23T06:17:58.228Z,484.00
2018-09-23T06:18:58.153Z,568.00
2018-09-23T06:19:58.078Z,748.00
2018-09-23T06:20:58.003Z,884.00
2018-09-23T06:21:57.928Z,896.00
2018-09-23T06:22:57.849Z,900.00
2018-09-23T06:23:57.777Z,816.00
2018-09-23T06:24:57.700Z,744.00
2018-09-23T06:25:57.629Z,664.00
2018-09-23T06:26:57.549Z,700.00
2018-09-23T06:27:57.470Z,748.00
2018-09-23T06:28:57.398Z,836.00
2018-09-23T06:29:57.321Z,716.00
2018-09-23T06:30:57.246Z,656.00
2018-09-23T06:31:57.169Z,740.00
2018-09-23T06:32:57.094Z,940.00
2018-09-23T06:33:57.015Z,1012.00
2018-09-23T06:34:56.944Z,1028.00
2018-09-23T06:35:56.868Z,1064.00
2018-09-23T06:36:56.818Z,976.00
2018-09-23T06:37:56.718Z,956.00
2018-09-23T06:38:56.640Z,924.00
2018-09-23T06:39:56.567Z,900.00
2018-09-23T06:40:56.489Z,980.00
2018-09-23T06:41:56.412Z,960.00
2018-09-23T06:42:56.341Z,916.00
2018-09-23T06:43:56.263Z,888.00
2018-09-23T06:44:56.185Z,912.00
2018-09-23T06:45:56.110Z,932.00
2018-09-23T06:46:56.034Z,888.00
2018-09-23T06:47:55.964Z,884.00
2018-09-23T06:48:55.886Z,944.00
2018-09-23T06:49:55.809Z,1160.00
2018-09-23T06:50:55.731Z,1424.00
2018-09-23T06:51:55.660Z,1324.00
2018-09-23T06:52:55.587Z,1104.00
2018-09-23T06:53:55.507Z,952.00
2018-09-23T06:54:55.431Z,944.00
2018-09-23T06:55:55.354Z,992.00
2018-09-23T06:56:55.314Z,1000.00
2018-09-23T06:57:55.205Z,1044.00
2018-09-23T06:58:55.126Z,1124.00
2018-09-23T06:59:55.051Z,1364.00
2018-09-23T07:00:54.978Z,1588.00
2018-09-23T07:01:54.904Z,1732.00
2018-09-23T07:02:54.826Z,1740.00
2018-09-23T07:03:54.747Z,1708.00
2018-09-23T07:04:54.718Z,1548.00
2018-09-23T07:05:54.599Z,1664.00
2018-09-23T07:06:54.523Z,2016.00
2018-09-23T07:07:54.447Z,2372.00
2018-09-23T07:08:54.372Z,2612.00
2018-09-23T07:09:54.302Z,2788.00
2018-09-23T07:10:54.223Z,2880.00
2018-09-23T07:11:54.145Z,2568.00
2018-09-23T07:12:54.068Z,2412.00
2018-09-23T07:13:53.996Z,2208.00
2018-09-23T07:14:53.919Z,1972.00
2018-09-23T07:15:53.845Z,1844.00
2018-09-23T07:16:53.769Z,1848.00
2018-09-23T07:17:53.695Z,1852.00
2018-09-23T07:18:53.619Z,1812.00
2018-09-23T07:19:53.549Z,1824.00
2018-09-23T07:20:53.471Z,1640.00
2018-09-23T07:21:53.394Z,1584.00
2018-09-23T07:22:53.317Z,1664.00
2018-09-23T07:23:53.312Z,1760.00
2018-09-23T07:24:53.169Z,1756.00
2018-09-23T07:25:53.091Z,1732.00
2018-09-23T07:26:53.018Z,1708.00
2018-09-23T07:27:52.941Z,1800.00
2018-09-23T07:28:52.865Z,1904.00
2018-09-23T07:29:52.802Z,2036.00
2018-09-23T07:30:52.717Z,2100.00
2018-09-23T07:31:52.641Z,2348.00
2018-09-23T07:32:52.567Z,2460.00
2018-09-23T07:33:52.490Z,2396.00
2018-09-23T07:34:52.416Z,2140.00
2018-09-23T07:35:52.341Z,1832.00
2018-09-23T07:36:52.345Z,1812.00
2018-09-23T07:37:52.196Z,2112.00
2018-09-23T07:38:52.112Z,2160.00
2018-09-23T07:39:52.074Z,1892.00
2018-09-23T07:40:51.964Z,1652.00
2018-09-23T07:41:51.889Z,1648.00
2018-09-23T07:42:51.813Z,1744.00
2018-09-23T07:43:51.743Z,1868.00
2018-09-23T07:44:51.664Z,1972.00
2018-09-23T07:45:51.590Z,2148.00
2018-09-23T07:46:51.514Z,2216.00
2018-09-23T07:47:51.495Z,2348.00
2018-09-23T07:48:51.365Z,2892.00
2018-09-23T07:49:51.291Z,3640.00
2018-09-23T07:50:51.214Z,3960.00
2018-09-23T07:51:51.139Z,3728.00
2018-09-23T07:52:51.066Z,3492.00
2018-09-23T07:53:50.993Z,3176.00
2018-09-23T07:54:50.916Z,2664.00
2018-09-23T07:55:50.843Z,2372.00
2018-09-23T07:56:50.769Z,2416.00
2018-09-23T07:57:50.689Z,2652.00
2018-09-23T07:58:50.617Z,2720.00
2018-09-23T07:59:50.542Z,2648.00
2018-09-23T08:00:50.465Z,2412.00
2018-09-23T08:01:50.390Z,2216.00
2018-09-23T08:02:50.312Z,2156.00
2018-09-23T08:03:50.243Z,2204.00
2018-09-23T08:04:50.165Z,2324.00
2018-09-23T08:05:50.094Z,2356.00
2018-09-23T08:06:50.016Z,2680.00
2018-09-23T08:07:49.943Z,2960.00
2018-09-23T08:08:49.866Z,2864.00
2018-09-23T08:09:49.798Z,2768.00
2018-09-23T08:10:49.716Z,2888.00
2018-09-23T08:11:49.705Z,2848.00
2018-09-23T08:12:49.757Z,2796.00
2018-09-23T08:13:49.673Z,2828.00
2018-09-23T08:14:49.864Z,2856.00
2018-09-23T08:15:49.346Z,2692.00
2018-09-23T08:16:49.278Z,2696.00
2018-09-23T08:17:49.188Z,2772.00
2018-09-23T08:18:49.121Z,2760.00
2018-09-23T08:19:49.196Z,2864.00
2018-09-23T08:20:48.973Z,2948.00
2018-09-23T08:21:48.896Z,2912.00
2018-09-23T08:22:48.828Z,2868.00
2018-09-23T08:23:48.752Z,2836.00
2018-09-23T08:24:48.673Z,2844.00
2018-09-23T08:25:48.598Z,2720.00
2018-09-23T08:26:48.528Z,2708.00
2018-09-23T08:27:48.446Z,2436.00
2018-09-23T08:28:48.374Z,2096.00
2018-09-23T08:29:48.298Z,1956.00
2018-09-23T08:30:48.225Z,2212.00
2018-09-23T08:31:48.151Z,2476.00
2018-09-23T08:32:48.099Z,2948.00
2018-09-23T08:33:48.002Z,3176.00
2018-09-23T08:34:47.924Z,3636.00
2018-09-23T08:35:47.852Z,3384.00
2018-09-23T08:36:47.775Z,3468.00
2018-09-23T08:37:47.705Z,3540.00
2018-09-23T08:38:47.626Z,3172.00
2018-09-23T08:39:47.594Z,2848.00
2018-09-23T08:40:47.482Z,2964.00
2018-09-23T08:41:47.400Z,3396.00
2018-09-23T08:42:47.378Z,3984.00
2018-09-23T08:43:47.264Z,4392.00
2018-09-23T08:44:47.180Z,3964.00
2018-09-23T08:45:47.105Z,3348.00
2018-09-23T08:46:47.031Z,3060.00
2018-09-23T08:47:46.961Z,2976.00
2018-09-23T08:48:46.882Z,2780.00
2018-09-23T08:49:46.810Z,2452.00
2018-09-23T08:50:46.734Z,2376.00
2018-09-23T08:51:46.728Z,2484.00
2018-09-23T08:52:46.586Z,2400.00
2018-09-23T08:53:46.511Z,2168.00
2018-09-23T08:54:46.444Z,2032.00
2018-09-23T08:55:46.365Z,2112.00
2018-09-23T08:56:46.364Z,2560.00
2018-09-23T08:57:46.245Z,3124.00
2018-09-23T08:58:46.139Z,3188.00
2018-09-23T08:59:46.065Z,2928.00
2018-09-23T09:00:45.992Z,2672.00
2018-09-23T09:01:45.918Z,2648.00
2018-09-23T09:02:45.839Z,2936.00
2018-09-23T09:03:45.810Z,3272.00
2018-09-23T09:04:45.693Z,3480.00
2018-09-23T09:05:45.617Z,3240.00
2018-09-23T09:06:45.543Z,2676.00
2018-09-23T09:07:45.471Z,2372.00
2018-09-23T09:08:45.395Z,2328.00
2018-09-23T09:09:45.326Z,2392.00
2018-09-23T09:10:45.249Z,2592.00
2018-09-23T09:11:45.191Z,2864.00
2018-09-23T09:12:45.096Z,3240.00
2018-09-23T09:13:45.023Z,3676.00
2018-09-23T09:14:44.951Z,4224.00
2018-09-23T09:15:44.877Z,4672.00
2018-09-23T09:16:44.800Z,5168.00
2018-09-23T09:17:44.726Z,5792.00
2018-09-23T09:18:44.769Z,6064.00
2018-09-23T09:19:44.576Z,5564.00
2018-09-23T09:20:44.503Z,4900.00
2018-09-23T09:21:44.430Z,4464.00
2018-09-23T09:22:44.358Z,4368.00
2018-09-23T09:23:44.281Z,4568.00
2018-09-23T09:24:44.205Z,4636.00
2018-09-23T09:25:44.131Z,5244.00
2018-09-23T09:26:44.077Z,5800.00
2018-09-23T09:27:43.983Z,5760.00
2018-09-23T09:28:43.911Z,5316.00
2018-09-23T09:29:43.839Z,4688.00
2018-09-23T09:30:43.764Z,4072.00
2018-09-23T09:31:43.688Z,3872.00
2018-09-23T09:32:43.614Z,4396.00
2018-09-23T09:33:43.541Z,4996.00
2018-09-23T09:34:43.467Z,4484.00
2018-09-23T09:35:43.390Z,4020.00
2018-09-23T09:36:43.318Z,4112.00
2018-09-23T09:37:43.245Z,4360.00
2018-09-23T09:38:43.178Z,5228.00
2018-09-23T09:39:43.100Z,5084.00
2018-09-23T09:40:43.024Z,3836.00
2018-09-23T09:41:42.950Z,3324.00
2018-09-23T09:42:42.874Z,3180.00
2018-09-23T09:43:42.803Z,3508.00
2018-09-23T09:44:42.729Z,3948.00
2018-09-23T09:45:42.655Z,3812.00
2018-09-23T09:46:42.580Z,3660.00
2018-09-23T09:47:42.513Z,3900.00
2018-09-23T09:48:42.451Z,3800.00
2018-09-23T09:49:42.368Z,3044.00
2018-09-23T09:50:42.288Z,2688.00
2018-09-23T09:51:42.212Z,2660.00
2018-09-23T09:52:42.137Z,2652.00
2018-09-23T09:53:42.070Z,2972.00
2018-09-23T09:54:41.997Z,3384.00
2018-09-23T09:55:41.917Z,3620.00
2018-09-23T09:56:41.844Z,3656.00
2018-09-23T09:57:41.769Z,3708.00
2018-09-23T09:58:41.694Z,3672.00
2018-09-23T09:59:41.622Z,3372.00
2018-09-23T10:00:41.549Z,3400.00
2018-09-23T10:01:41.474Z,3940.00
2018-09-23T10:02:41.399Z,4828.00
2018-09-23T10:03:41.346Z,5028.00
2018-09-23T10:04:41.253Z,5144.00
2018-09-23T10:05:41.179Z,5636.00
2018-09-23T10:06:41.102Z,5260.00
2018-09-23T10:07:41.029Z,5252.00
2018-09-23T10:08:40.957Z,5528.00
2018-09-23T10:09:40.882Z,5252.00
2018-09-23T10:10:40.810Z,5056.00
2018-09-23T10:11:40.767Z,4492.00
2018-09-23T10:12:40.665Z,4628.00
2018-09-23T10:13:40.589Z,4768.00
2018-09-23T10:14:40.514Z,4536.00
2018-09-23T10:15:40.441Z,4268.00
2018-09-23T10:16:40.367Z,3948.00
2018-09-23T10:17:40.297Z,3728.00
2018-09-23T10:18:40.220Z,3580.00
2018-09-23T10:19:40.155Z,3640.00
2018-09-23T10:20:40.072Z,3884.00
2018-09-23T10:21:39.999Z,3836.00
2018-09-23T10:22:39.994Z,3604.00
2018-09-23T10:23:40.065Z,3872.00
2018-09-23T10:24:39.779Z,4408.00
2018-09-23T10:25:39.708Z,4856.00
2018-09-23T10:26:39.632Z,4920.00
2018-09-23T10:27:39.597Z,4924.00
2018-09-23T10:28:39.484Z,4940.00
2018-09-23T10:29:39.431Z,5724.00
2018-09-23T10:30:39.337Z,5508.00
2018-09-23T10:31:39.309Z,5668.00
2018-09-23T10:32:39.190Z,6012.00
2018-09-23T10:33:39.121Z,5836.00
2018-09-23T10:34:39.043Z,6176.00
2018-09-23T10:35:38.971Z,7036.00
2018-09-23T10:36:38.894Z,7600.00
2018-09-23T10:37:38.822Z,7580.00
2018-09-23T10:38:38.749Z,7132.00
2018-09-23T10:39:38.674Z,6024.00
2018-09-23T10:40:38.603Z,6144.00
2018-09-23T10:41:38.532Z,6212.00
2018-09-23T10:42:38.455Z,5808.00
2018-09-23T10:43:38.383Z,5732.00
2018-09-23T10:44:38.315Z,6040.00
2018-09-23T10:45:38.235Z,5896.00
2018-09-23T10:46:38.162Z,6168.00
2018-09-23T10:47:38.089Z,5976.00
2018-09-23T10:48:38.018Z,5428.00
2018-09-23T10:49:37.943Z,4776.00
2018-09-23T10:50:37.869Z,4236.00
2018-09-23T10:51:37.801Z,3492.00
2018-09-23T10:52:37.722Z,3012.00
2018-09-23T10:53:37.650Z,2856.00
2018-09-23T10:54:37.576Z,2868.00
2018-09-23T10:55:37.557Z,2956.00
2018-09-23T10:56:37.429Z,2964.00
2018-09-23T10:57:37.357Z,2760.00
2018-09-23T10:58:37.289Z,2504.00
2018-09-23T10:59:37.288Z,2052.00
2018-09-23T11:00:37.139Z,1612.00
2018-09-23T11:01:37.064Z,1440.00
2018-09-23T11:02:36.994Z,1508.00
2018-09-23T11:03:36.939Z,1688.00
2018-09-23T11:04:36.843Z,1760.00
2018-09-23T11:05:36.793Z,1708.00
2018-09-23T11:06:36.696Z,1604.00
2018-09-23T11:07:36.629Z,1432.00
2018-09-23T11:08:36.558Z,1348.00
2018-09-23T11:09:36.495Z,1532.00
2018-09-23T11:10:36.401Z,1656.00
2018-09-23T11:11:36.341Z,1744.00
2018-09-23T11:12:36.261Z,1716.00
2018-09-23T11:13:36.185Z,1512.00
2018-09-23T11:14:36.115Z,1404.00
2018-09-23T11:15:36.038Z,1356.00
2018-09-23T11:16:35.965Z,1276.00
2018-09-23T11:17:35.894Z,1204.00
2018-09-23T11:18:35.817Z,1080.00
2018-09-23T11:19:35.745Z,916.00
2018-09-23T11:20:35.670Z,816.00
2018-09-23T11:21:35.602Z,760.00
2018-09-23T11:22:35.521Z,692.00
2018-09-23T11:23:35.450Z,632.00
2018-09-23T11:24:35.400Z,600.00
2018-09-23T11:25:35.300Z,552.00
2018-09-23T11:26:35.226Z,564.00
2018-09-23T11:27:35.152Z,592.00
2018-09-23T11:28:35.082Z,592.00
2018-09-23T11:29:35.007Z,552.00
2018-09-23T11:30:34.956Z,760.00
2018-09-23T11:31:34.864Z,948.00
2018-09-23T11:32:34.786Z,1144.00
2018-09-23T11:33:34.708Z,1392.00
2018-09-23T11:34:34.638Z,1452.00
2018-09-23T11:35:34.567Z,1640.00
2018-09-23T11:36:34.495Z,2172.00
2018-09-23T11:37:34.417Z,2928.00
2018-09-23T11:38:34.341Z,3288.00
2018-09-23T11:39:34.268Z,3032.00
2018-09-23T11:40:34.193Z,2684.00
2018-09-23T11:41:34.119Z,2820.00
2018-09-23T11:42:34.048Z,3424.00
2018-09-23T11:43:33.972Z,4128.00
2018-09-23T11:44:33.899Z,4012.00
2018-09-23T11:45:33.827Z,3916.00
2018-09-23T11:46:33.750Z,3864.00
2018-09-23T11:47:33.677Z,4036.00
2018-09-23T11:48:33.603Z,4164.00
2018-09-23T11:49:33.534Z,3852.00
2018-09-23T11:50:33.454Z,3860.00
2018-09-23T11:51:33.380Z,3236.00
2018-09-23T11:52:33.308Z,2668.00
2018-09-23T11:53:33.238Z,2200.00
2018-09-23T11:54:33.161Z,2236.00
2018-09-23T11:55:33.090Z,2176.00
2018-09-23T11:56:33.014Z,2208.00
2018-09-23T11:57:32.959Z,1908.00
2018-09-23T11:58:32.864Z,2076.00
2018-09-23T11:59:32.790Z,1824.00
2018-09-23T12:00:32.715Z,1936.00
2018-09-23T12:01:32.644Z,1616.00
2018-09-23T12:02:32.568Z,956.00
2018-09-23T12:03:32.494Z,868.00
2018-09-23T12:04:32.488Z,932.00
2018-09-23T12:05:32.345Z,988.00
2018-09-23T12:06:32.271Z,800.00
2018-09-23T12:07:32.199Z,644.00
2018-09-23T12:08:32.124Z,504.00
2018-09-23T12:09:32.050Z,468.00
2018-09-23T12:10:31.985Z,488.00
2018-09-23T12:11:31.903Z,488.00
2018-09-23T12:12:31.833Z,408.00
2018-09-23T12:13:31.754Z,364.00
2018-09-23T12:14:31.679Z,332.00
2018-09-23T12:15:31.612Z,316.00
2018-09-23T12:16:31.535Z,292.00
2018-09-23T12:17:31.459Z,292.00
2018-09-23T12:18:31.387Z,364.00
2018-09-23T12:19:31.312Z,368.00
2018-09-23T12:20:31.236Z,392.00
2018-09-23T12:21:31.164Z,436.00
2018-09-23T12:22:31.089Z,464.00
2018-09-23T12:23:31.012Z,460.00
2018-09-23T12:24:30.938Z,516.00
2018-09-23T12:25:30.985Z,596.00
2018-09-23T12:26:30.791Z,704.00
2018-09-23T12:27:30.716Z,796.00
2018-09-23T12:28:30.643Z,808.00
2018-09-23T12:29:30.582Z,816.00
2018-09-23T12:30:30.489Z,772.00
2018-09-23T12:31:30.420Z,692.00
2018-09-23T12:32:30.344Z,564.00
2018-09-23T12:33:30.270Z,492.00
2018-09-23T12:34:30.222Z,384.00
2018-09-23T12:35:30.139Z,352.00
2018-09-23T12:36:30.045Z,380.00
2018-09-23T12:37:29.970Z,480.00
2018-09-23T12:38:29.895Z,544.00